createdAt,value
2023-09-22T00:04:04.509Z,13.7
2023-09-22T00:14:04.454Z,13.7
2023-09-22T00:24:04.430Z,13.5
2023-09-22T00:34:04.388Z,13.4
2023-09-22T00:44:04.353Z,13.3
2023-09-22T00:54:04.316Z,13.3
2023-09-22T01:04:04.286Z,13.1
2023-09-22T01:14:04.255Z,13.1
2023-09-22T01:24:04.204Z,13
2023-09-22T01:34:04.184Z,13.2
2023-09-22T01:44:04.146Z,13.1
2023-09-22T01:54:04.101Z,13.1
2023-09-22T02:04:04.067Z,13
2023-09-22T02:24:03.992Z,12.8
2023-09-22T02:34:03.964Z,12.8
2023-09-22T02:44:03.917Z,12.7
2023-09-22T02:54:03.880Z,12.6
2023-09-22T03:04:03.858Z,12.5
2023-09-22T03:14:03.815Z,12.4
2023-09-22T03:24:03.771Z,12.3
2023-09-22T03:34:03.741Z,12.2
2023-09-22T03:44:03.714Z,12.2
2023-09-22T03:54:03.658Z,12.1
2023-09-22T04:04:03.640Z,12.1
2023-09-22T04:14:03.608Z,12.2
2023-09-22T04:24:03.565Z,12.2
2023-09-22T04:34:03.524Z,12.3
2023-09-22T04:44:03.488Z,12.4
2023-09-22T04:54:03.457Z,12.4
2023-09-22T05:04:03.427Z,12.5
2023-09-22T05:14:03.393Z,12.5
2023-09-22T05:24:03.350Z,12.5
2023-09-22T05:34:03.322Z,12.5
2023-09-22T05:44:03.285Z,12.5
2023-09-22T05:54:03.243Z,12.4
2023-09-22T06:04:03.214Z,12.3
2023-09-22T06:14:03.166Z,12.4
2023-09-22T06:24:03.141Z,12.4
2023-09-22T06:34:03.108Z,12.5
2023-09-22T06:44:03.071Z,12.5
2023-09-22T06:54:03.028Z,12.6
2023-09-22T07:04:02.997Z,12.8
2023-09-22T07:14:02.959Z,12.9
2023-09-22T07:24:02.933Z,13.1
2023-09-22T07:34:02.909Z,13.1
2023-09-22T07:44:02.834Z,13.2
2023-09-22T07:54:02.821Z,13.2
2023-09-22T08:04:02.784Z,13.3
2023-09-22T08:14:02.985Z,13.4
2023-09-22T08:24:02.933Z,13.6
2023-09-22T08:34:02.680Z,13.8
2023-09-22T08:44:02.637Z,13.9
2023-09-22T08:54:02.584Z,14.2
2023-09-22T09:04:02.545Z,14.4
2023-09-22T09:14:02.519Z,14.6
2023-09-22T09:24:02.481Z,14.8
2023-09-22T09:34:02.484Z,14.9
2023-09-22T09:44:02.416Z,14.9
2023-09-22T09:54:02.584Z,15.1
2023-09-22T10:04:02.340Z,15.4
2023-09-22T10:14:02.289Z,15.2
2023-09-22T10:24:02.259Z,15.3
2023-09-22T10:34:02.227Z,15.3
2023-09-22T10:44:02.441Z,15.6
2023-09-22T10:54:02.508Z,15.9
2023-09-22T11:04:02.159Z,15.9
2023-09-22T11:14:02.217Z,16.1
2023-09-22T11:24:02.296Z,16.3
2023-09-22T11:34:02.126Z,16.5
2023-09-22T11:44:02.292Z,16.8
2023-09-22T11:54:02.226Z,16.9
2023-09-22T12:04:01.863Z,17.1
2023-09-22T12:14:01.853Z,17.3
2023-09-22T12:24:02.150Z,17.5
2023-09-22T12:34:02.094Z,17.4
2023-09-22T12:44:01.969Z,17.8
2023-09-22T12:54:02.030Z,17.8
2023-09-22T13:04:01.820Z,17.7
2023-09-22T13:14:01.668Z,17.7
2023-09-22T13:24:01.592Z,18
2023-09-22T13:34:01.677Z,18.1
2023-09-22T13:44:01.867Z,18.1
2023-09-22T13:54:01.651Z,18
2023-09-22T14:04:01.729Z,18.6
2023-09-22T14:14:01.688Z,18.8
2023-09-22T14:24:01.532Z,18.5
2023-09-22T14:34:01.577Z,18.3
2023-09-22T14:44:01.341Z,18.1
2023-09-22T14:54:01.223Z,18.1
2023-09-22T15:04:01.172Z,18
2023-09-22T15:14:01.310Z,17.8
2023-09-22T15:24:01.331Z,17.7
2023-09-22T15:34:01.376Z,17.3
2023-09-22T15:44:01.319Z,17
2023-09-22T15:54:01.402Z,16.5
2023-09-22T16:04:01.279Z,15.2
2023-09-22T16:14:01.301Z,14.9
2023-09-22T16:24:00.879Z,14.8
2023-09-22T16:34:01.279Z,14.6
2023-09-22T16:44:01.046Z,14.9
2023-09-22T16:54:00.959Z,14.6
2023-09-22T17:04:00.739Z,14.6
2023-09-22T17:14:00.990Z,14.6
2023-09-22T17:24:00.907Z,14.6
2023-09-22T17:34:00.899Z,14.5
2023-09-22T17:44:00.838Z,14.3
2023-09-22T17:54:00.764Z,14
2023-09-22T18:04:00.894Z,13.9
2023-09-22T18:14:00.533Z,13.9
2023-09-22T18:24:00.795Z,13.8
2023-09-22T18:34:00.377Z,13.6
2023-09-22T18:44:00.417Z,13.5
2023-09-22T18:54:00.782Z,13.3
2023-09-22T19:04:00.585Z,13.2
2023-09-22T19:14:00.231Z,13.3
2023-09-22T19:24:00.333Z,13.3
2023-09-22T19:34:00.499Z,13.2
2023-09-22T19:44:00.481Z,13.2
2023-09-22T19:54:00.367Z,13.1
2023-09-22T20:04:00.175Z,13.1
2023-09-22T20:14:00.131Z,13
2023-09-22T20:24:00.058Z,12.9
2023-09-22T20:34:00.136Z,12.8
2023-09-22T20:43:59.913Z,12.7
2023-09-22T20:54:00.127Z,12.6
2023-09-22T21:04:00.212Z,12.5
2023-09-22T21:14:00.031Z,12.5
2023-09-22T21:24:00.053Z,12.4
2023-09-22T21:34:00.080Z,12.3
2023-09-22T21:44:00.032Z,12.2
2023-09-22T21:54:00.037Z,12.2
2023-09-22T22:03:59.615Z,12.2
2023-09-22T22:13:59.830Z,12.1
2023-09-22T22:23:59.832Z,12.1
2023-09-22T22:33:59.856Z,12
2023-09-22T22:43:59.764Z,12
2023-09-22T22:53:59.745Z,11.8
2023-09-22T23:03:59.747Z,11.7
2023-09-22T23:13:59.514Z,11.6
2023-09-22T23:23:59.473Z,11.5
2023-09-22T23:33:59.608Z,11.5
2023-09-22T23:43:59.653Z,11.6
2023-09-22T23:53:59.556Z,11.5
